• Join FlightAware (Why Join?)
  • Login
  • US Flag 
11:48AM EDT


 

Airport Tracker/Info


-or-


 

Live Flight TrackerFlight Track Log ✈ FLG3757 ✈ 14-Jan-2014 ✈ KBGM - KDTW

Flight Track Log - Related Links

Times and Time Zones

All times are in EST time to prevent confusion due to time zone crossing. See the FLG3757 flight status page for this flight to view local times or setup timezone preferences in your user account.

Time Position Orientation Groundspeed Altitude Reporting Facility
EST Latitude Longitude Course Direction KTS MPH feet Rate Location/Type
06:05AM 42.1781 -75.9672 269° West 159 183 3,100  Level New York Center
06:06AM 42.1775 -76.0289 269° West 206 237 5,100 2,040 Climbing New York Center
06:07AM 42.2161 -76.0992 307° West 225 259 7,200 2,460 Climbing New York Center
06:08AM 42.2867 -76.1469 333° Northwest 240 276 10,100 1,980 Climbing New York Center
06:09AM 42.3333 -76.2181 312° West 263 303 11,200 1,560 Climbing New York Center
06:10AM 42.3764 -76.3253 299° West 300 345 13,300 1,800 Climbing New York Center
06:11AM 42.4256 -76.4306 302° West 320 368 14,900 1,740 Climbing New York Center
06:13AM 42.5386 -76.6725 302° West 352 405 19,000 1,260 Climbing Cleveland Center
06:14AM 42.5619 -76.7986 284° West 348 400 19,000  Level Cleveland Center
06:15AM 42.5897 -76.9342 286° West 369 425 19,000 540 Level Cleveland Center
06:16AM 42.6200 -77.0747 286° West 384 442 20,100 1,320 Climbing Cleveland Center
06:17AM 42.6519 -77.2328 285° West 370 426 21,700 1,380 Climbing Cleveland Center
06:18AM 42.6786 -77.3619 286° West 361 415 23,000 1,260 Climbing Cleveland Center
06:19AM 42.7044 -77.4889 286° West 355 409 24,300 1,080 Climbing Cleveland Center
06:20AM 42.7283 -77.6106 285° West 344 396 25,300 900 Climbing Cleveland Center
06:21AM 42.7528 -77.7286 286° West 335 386 26,200 840 Climbing Cleveland Center
06:22AM 42.7769 -77.8475 286° West 332 382 27,000 720 Climbing Cleveland Center
06:23AM 42.7997 -77.9664 285° West 327 376 27,700 480 Climbing Cleveland Center
06:24AM 42.8228 -78.0844 285° West 325 374 28,000 120 Climbing Cleveland Center
06:25AM 42.8503 -78.2333 284° West 340 391 28,000  Level Cleveland Center
06:26AM 42.8753 -78.3617 285° West 351 404 28,000  Level Cleveland Center
06:27AM 42.8997 -78.4931 284° West 358 412 28,000  Level Cleveland Center
06:28AM 42.9258 -78.6253 285° West 362 417 28,000  Level Cleveland Center
06:29AM 42.9136 -78.7483 262° West 324 373 28,000  Level Cleveland Center
06:30AM 42.8967 -78.8694 259° West 325 374 28,000  Level Cleveland Center
06:31AM 42.8800 -78.9914 259° West 328 377 28,000  Level Cleveland Center
06:32AM 42.8619 -79.1133 259° West 327 376 28,000  Level Cleveland Center
06:33AM 42.8433 -79.2342 258° West 328 377 28,000  Level Cleveland Center
06:34AM 42.8261 -79.3572 259° West 329 379 28,000  Level Cleveland Center
06:35AM 42.8072 -79.4803 258° West 332 382 28,000  Level Cleveland Center
06:36AM 42.7886 -79.6031 258° West 334 384 28,000  Level Cleveland Center
06:37AM 42.7661 -79.7500 258° West 333 383 28,000  Level Cleveland Center
06:38AM 42.7492 -79.8758 260° West 338 389 28,000  Level Cleveland Center
06:39AM 42.7450 -79.9936 267° West 350 403 28,000  Level Cleveland Center
06:40AM 42.7397 -80.1292 267° West 354 407 28,000  Level Cleveland Center
06:41AM 42.7333 -80.2636 266° West 353 406 28,000  Level Cleveland Center
06:42AM 42.7281 -80.3969 267° West 351 404 28,000 -300 Level Cleveland Center
06:43AM 42.7208 -80.5483 266° West 344 396 27,400 -840 Descending Cleveland Center
06:44AM 42.7144 -80.6794 266° West 345 397 26,400 -1,020 Descending Cleveland Center
06:45AM 42.7097 -80.8119 267° West 347 399 25,400 -1,020 Descending Cleveland Center
06:46AM 42.6994 -80.9408 264° West 343 395 24,400 -720 Descending Cleveland Center
06:47AM 42.6858 -81.0708 262° West 345 397 24,000 -240 Descending Cleveland Center
06:48AM 42.6703 -81.1975 261° West 340 391 24,000  Level Cleveland Center
06:50AM 42.6558 -81.3281 261° West 345 397 24,000  Level Cleveland Center
06:51AM 42.6406 -81.4578 261° West 344 396 24,000  Level Cleveland Center
06:52AM 42.6258 -81.5892 261° West 348 400 24,000 -420 Level Cleveland Center
06:53AM 42.6106 -81.7200 261° West 349 402 23,200 -1,440 Descending Cleveland Center
06:54AM 42.5942 -81.8508 260° West 353 406 21,100 -1,980 Descending Cleveland Center
06:55AM 42.5786 -81.9756 260° West 340 391 19,200 -2,040 Descending Cleveland Center
06:56AM 42.5625 -82.1028 260° West 343 395 17,000 -2,040 Descending Cleveland Center
06:57AM 42.5469 -82.2292 261° West 343 395 15,100 -2,220 Descending Cleveland Center
06:57AM 42.5422 -82.2622 259° West 334 384 14,500 -2,280 Descending Cleveland Center
06:58AM 42.5300 -82.3742 262° West 330 380 12,800 -1,680 Descending Cleveland Center
06:58AM 42.5275 -82.3850 253° West 327 376 12,800 -720 Level Cleveland Center
06:59AM 42.5150 -82.4956 261° West 329 379 12,100 -720 Descending Cleveland Center
06:59AM 42.5128 -82.5075 256° West 326 375 12,100 -420 Level Cleveland Center
07:00AM 42.4864 -82.6069 250° West 319 367 11,700 -780 Descending Cleveland Center
07:00AM 42.4761 -82.6386 246° West 286 329 11,200 -1,200 Descending Cleveland Center
07:01AM 42.4533 -82.6997 243° Southwest 287 330 10,500 -1,140 Descending Cleveland Center
07:01AM 42.4400 -82.7356 243° Southwest 265 305 10,100 -1,140 Descending Cleveland Center
07:02AM 42.4356 -82.7886 264° West 252 290 9,400 -1,440 Descending Cleveland Center
07:02AM 42.4308 -82.8333 262° West 240 276 8,500 -1,980 Descending Cleveland Center
07:03AM 42.4258 -82.8808 262° West 246 283 7,400 -1,740 Descending Cleveland Center
07:03AM 42.4219 -82.9256 263° West 247 284 6,800 -1,320 Descending Cleveland Center
07:04AM 42.4172 -82.9703 262° West 244 281 6,100 -720 Descending Cleveland Center
07:04AM 42.4131 -83.0147 263° West 238 274 6,100 -300 Level Cleveland Center
07:05AM 42.4094 -83.0567 263° West 236 272 5,800 -1,020 Descending Cleveland Center
07:05AM 42.4022 -83.1036 258° West 232 267 5,100 -900 Descending Cleveland Center
07:06AM 42.3989 -83.1422 263° West 233 268 4,900 -900 Descending Cleveland Center
07:06AM 42.3808 -83.1939 245° Southwest 213 245 4,100 -1,200 Descending Cleveland Center
07:07AM 42.3569 -83.2331 230° Southwest 186 214 3,500 -660 Descending Cleveland Center
07:08AM 42.3208 -83.2603 209° Southwest 190 219 3,100 -540 Descending Cleveland Center
07:08AM 42.3122 -83.2664 208° Southwest 185 213 3,000 -1,020 Descending Cleveland Center
07:09AM 42.2772 -83.2928 209° Southwest 184 212 2,100 -1,020 Descending Cleveland Center
07:09AM 42.2703 -83.2972 205° Southwest 149 171 2,000 -840 Descending Cleveland Center
07:10AM 42.2428 -83.3181 209° Southwest 156 180 1,300 -900 Descending Cleveland Center
07:10AM 42.2347 -83.3233 206° Southwest 141 162 1,100 -300 Descending Cleveland Center
07:11AM 42.2100 -83.3408 208° Southwest 150 173 1,000 -120 Descending Cleveland Center
07:13AM 42.2000 -83.3500 246° West  Level FlightAware Approximate
07:20AM 42.2124 -83.3534 246° West  Level Estimated